createdAt,value
2022-11-18T00:02:03.450Z,43.47
2022-11-18T00:04:32.892Z,45.88
2022-11-18T00:07:02.118Z,45.37
2022-11-18T00:09:33.489Z,45.83
2022-11-18T00:12:20.923Z,45.86
2022-11-18T00:14:49.532Z,46.28
2022-11-18T00:17:18.516Z,44.69
2022-11-18T00:19:48.244Z,45.74
2022-11-18T00:22:18.933Z,46.39
2022-11-18T00:24:47.844Z,45.89
2022-11-18T00:27:16.625Z,46.88
2022-11-18T00:29:45.453Z,47.29
2022-11-18T00:32:14.417Z,48.15
2022-11-18T00:34:46.361Z,48.09
2022-11-18T00:37:15.328Z,48.84
2022-11-18T00:39:44.251Z,47.86
2022-11-18T00:42:31.926Z,47.49
2022-11-18T00:45:04.087Z,48.48
2022-11-18T00:47:33.132Z,47.05
2022-11-18T00:50:01.907Z,47.59
2022-11-18T00:52:30.771Z,48.77
2022-11-18T00:54:59.854Z,48.10
2022-11-18T00:57:29.120Z,48.85
2022-11-18T00:59:58.092Z,51.16
2022-11-18T01:02:27.110Z,49.99
2022-11-18T01:04:56.307Z,49.39
2022-11-18T01:07:25.346Z,50.52
2022-11-18T01:09:54.455Z,49.72
2022-11-18T01:12:41.441Z,48.94
2022-11-18T01:15:10.805Z,48.59
2022-11-18T01:17:39.870Z,50.07
2022-11-18T01:20:09.421Z,49.64
2022-11-18T01:22:38.258Z,48.84
2022-11-18T01:25:07.672Z,49.77
2022-11-18T01:27:36.483Z,49.79
2022-11-18T01:30:06.112Z,49.65
2022-11-18T01:32:35.444Z,50.23
2022-11-18T01:35:04.330Z,49.53
2022-11-18T01:37:33.336Z,48.24
2022-11-18T01:40:02.392Z,48.52
2022-11-18T01:42:31.463Z,49.13
2022-11-18T01:45:11.310Z,48.39
2022-11-18T01:47:50.751Z,48.77
2022-11-18T01:50:22.978Z,49.11
2022-11-18T01:52:54.626Z,48.46
2022-11-18T01:55:30.677Z,48.87
2022-11-18T01:58:40.202Z,48.59
2022-11-18T02:01:09.736Z,48.78
2022-11-18T02:03:39.553Z,49.04
2022-11-18T02:06:14.411Z,48.73
2022-11-18T02:08:43.955Z,49.40
2022-11-18T02:11:34.356Z,48.95
2022-11-18T02:14:06.120Z,48.13
2022-11-18T02:16:44.311Z,48.47
2022-11-18T02:19:36.193Z,47.78
2022-11-18T02:22:25.667Z,46.89
2022-11-18T02:25:15.413Z,49.48
2022-11-18T02:28:30.146Z,49.19
2022-11-18T02:31:16.231Z,48.70
2022-11-18T02:33:56.431Z,45.26
2022-11-18T02:36:54.727Z,49.45
2022-11-18T02:39:38.025Z,47.24
2022-11-18T02:42:11.717Z,47.78
2022-11-18T02:44:45.089Z,46.87
2022-11-18T02:47:16.474Z,48.06
2022-11-18T02:49:55.206Z,47.54
2022-11-18T02:52:26.845Z,47.01
2022-11-18T02:54:58.345Z,48.52
2022-11-18T02:57:30.957Z,46.71
2022-11-18T03:00:05.086Z,48.18
2022-11-18T03:02:44.498Z,47.74
2022-11-18T03:05:34.187Z,48.24
2022-11-18T03:08:15.319Z,47.17
2022-11-18T03:10:53.817Z,47.81
2022-11-18T03:13:32.653Z,46.63
2022-11-18T03:16:08.091Z,46.37
2022-11-18T03:18:49.717Z,47.23
2022-11-18T03:21:44.286Z,47.29
2022-11-18T03:24:20.951Z,47.80
2022-11-18T03:27:02.059Z,46.16
2022-11-18T03:29:35.892Z,45.66
2022-11-18T03:32:12.140Z,46.52
2022-11-18T03:34:46.886Z,46.94
2022-11-18T03:37:18.194Z,46.37
2022-11-18T03:39:54.833Z,46.24
2022-11-18T03:42:31.121Z,48.12
2022-11-18T03:45:23.696Z,45.72
2022-11-18T03:48:06.519Z,46.80
2022-11-18T03:50:41.905Z,46.85
2022-11-18T03:53:13.289Z,47.10
2022-11-18T03:55:46.241Z,47.08
2022-11-18T03:58:24.535Z,47.03
2022-11-18T04:01:00.479Z,45.94
2022-11-18T04:03:29.550Z,46.06
2022-11-18T04:06:10.528Z,43.69
2022-11-18T04:08:41.390Z,46.51
2022-11-18T04:11:38.130Z,45.98
2022-11-18T04:14:09.417Z,45.76
2022-11-18T04:16:45.908Z,45.10
2022-11-18T04:19:16.606Z,45.32
2022-11-18T04:21:45.457Z,45.94
2022-11-18T04:24:14.638Z,46.83
2022-11-18T04:26:44.513Z,46.17
2022-11-18T04:29:13.476Z,45.69
2022-11-18T04:31:42.298Z,46.13
2022-11-18T04:34:11.816Z,46.14
2022-11-18T04:36:41.096Z,45.48
2022-11-18T04:39:11.049Z,43.88
2022-11-18T04:41:58.396Z,45.00
2022-11-18T04:44:30.477Z,44.25
2022-11-18T04:47:02.219Z,43.44
2022-11-18T04:49:31.593Z,44.47
2022-11-18T04:52:01.637Z,44.49
2022-11-18T04:54:33.776Z,45.12
2022-11-18T04:57:02.988Z,44.05
2022-11-18T04:59:32.403Z,43.99
2022-11-18T05:02:04.666Z,43.50
2022-11-18T05:04:35.483Z,44.30
2022-11-18T05:07:06.092Z,43.77
2022-11-18T05:09:35.738Z,45.12
2022-11-18T05:12:22.946Z,44.62
2022-11-18T05:14:51.816Z,45.38
2022-11-18T05:17:20.590Z,45.71
2022-11-18T05:19:50.373Z,46.37
2022-11-18T05:22:20.086Z,45.24
2022-11-18T05:24:49.160Z,46.46
2022-11-18T05:27:18.340Z,44.65
2022-11-18T05:29:47.181Z,44.94
2022-11-18T05:32:16.230Z,44.83
2022-11-18T05:34:45.383Z,43.93
2022-11-18T05:37:14.152Z,43.00
2022-11-18T05:39:43.172Z,44.35
2022-11-18T05:42:30.828Z,44.34
2022-11-18T05:44:59.729Z,43.80
2022-11-18T05:47:28.571Z,43.13
2022-11-18T05:49:57.385Z,45.14
2022-11-18T05:52:26.182Z,45.65
2022-11-18T05:54:55.130Z,45.73
2022-11-18T05:57:23.988Z,45.30
2022-11-18T05:59:53.443Z,42.47
2022-11-18T06:02:24.872Z,44.56
2022-11-18T06:05:00.795Z,43.76
2022-11-18T06:07:53.542Z,44.55
2022-11-18T06:10:26.929Z,45.19
2022-11-18T06:13:02.360Z,45.32
2022-11-18T06:15:39.911Z,47.03
2022-11-18T06:18:32.885Z,46.23
2022-11-18T06:21:06.661Z,46.86
2022-11-18T06:23:38.589Z,46.85
2022-11-18T06:26:10.233Z,47.12
2022-11-18T06:28:41.271Z,46.35
2022-11-18T06:31:10.278Z,43.51
2022-11-18T06:33:39.005Z,45.24
2022-11-18T06:36:08.215Z,44.47
2022-11-18T06:38:36.903Z,46.71
2022-11-18T06:41:05.952Z,45.58
2022-11-18T06:43:42.480Z,44.71
2022-11-18T06:46:32.602Z,46.36
2022-11-18T06:49:03.389Z,45.30
2022-11-18T06:51:32.295Z,44.09
2022-11-18T06:54:03.669Z,45.33
2022-11-18T06:56:35.776Z,45.72
2022-11-18T06:59:05.345Z,46.58
2022-11-18T07:01:37.950Z,45.96
2022-11-18T07:04:07.056Z,45.49
2022-11-18T07:06:37.447Z,45.90
2022-11-18T07:09:08.720Z,45.81
2022-11-18T07:11:39.059Z,44.01
2022-11-18T07:14:11.160Z,45.19
2022-11-18T07:16:40.387Z,45.15
2022-11-18T07:19:11.459Z,47.09
2022-11-18T07:21:41.275Z,44.60
2022-11-18T07:24:13.211Z,44.78
2022-11-18T07:26:42.737Z,45.91
2022-11-18T07:29:12.030Z,44.05
2022-11-18T07:31:41.594Z,47.17
2022-11-18T07:34:10.375Z,48.15
2022-11-18T07:36:39.112Z,47.79
2022-11-18T07:39:08.270Z,48.31
2022-11-18T07:41:37.334Z,48.41
2022-11-18T07:44:07.288Z,50.38
2022-11-18T07:46:38.214Z,49.35
2022-11-18T07:49:12.228Z,48.35
2022-11-18T07:51:41.739Z,48.25
2022-11-18T07:54:13.158Z,47.78
2022-11-18T07:56:42.128Z,47.69
2022-11-18T07:59:10.852Z,45.57
2022-11-18T08:01:39.774Z,48.35
2022-11-18T08:04:11.221Z,48.01
2022-11-18T08:06:41.034Z,47.86
2022-11-18T08:09:11.303Z,48.83
2022-11-18T08:11:41.674Z,47.53
2022-11-18T08:14:10.542Z,49.82
2022-11-18T08:16:39.306Z,48.27
2022-11-18T08:19:08.426Z,48.73
2022-11-18T08:21:37.119Z,49.50
2022-11-18T08:24:06.361Z,48.17
2022-11-18T08:26:35.090Z,53.61
2022-11-18T08:29:04.522Z,56.12
2022-11-18T08:31:33.271Z,55.14
2022-11-18T08:34:05.449Z,54.73
2022-11-18T08:36:36.822Z,58.53
2022-11-18T08:39:09.405Z,64.20
2022-11-18T08:41:43.970Z,65.76
2022-11-18T08:44:14.999Z,54.56
2022-11-18T08:46:48.182Z,54.75
2022-11-18T08:49:17.427Z,54.21
2022-11-18T08:51:46.395Z,53.56
2022-11-18T08:54:15.512Z,52.89
2022-11-18T08:56:44.508Z,51.69
2022-11-18T08:59:13.644Z,51.28
2022-11-18T09:01:44.357Z,52.19
2022-11-18T09:04:13.313Z,51.59
2022-11-18T09:06:42.110Z,51.38
2022-11-18T09:09:11.471Z,50.96
2022-11-18T09:11:41.232Z,50.86
2022-11-18T09:15:11.899Z,51.32
2022-11-18T09:17:02.979Z,52.72
2022-11-18T09:19:46.870Z,53.11
2022-11-18T09:22:16.497Z,53.87
2022-11-18T09:24:45.733Z,53.48
2022-11-18T09:27:17.357Z,53.99
2022-11-18T09:29:46.873Z,53.15
2022-11-18T09:32:15.743Z,52.76
2022-11-18T09:34:44.715Z,51.71
2022-11-18T09:37:13.625Z,53.19
2022-11-18T09:39:42.480Z,53.91
2022-11-18T09:42:45.889Z,52.35
2022-11-18T09:45:25.811Z,51.23
2022-11-18T09:48:02.081Z,53.76
2022-11-18T09:53:26.326Z,58.30
2022-11-18T09:55:56.565Z,64.17
2022-11-18T09:58:36.803Z,68.11
2022-11-18T10:01:18.651Z,71.94
2022-11-18T10:03:47.958Z,73.87
2022-11-18T10:06:25.889Z,73.46
2022-11-18T10:09:22.901Z,78.14
2022-11-18T10:12:03.989Z,79.99
2022-11-18T10:14:43.495Z,69.11
2022-11-18T10:17:36.226Z,66.73
2022-11-18T10:20:34.123Z,61.70
2022-11-18T10:23:34.202Z,59.30
2022-11-18T10:26:03.075Z,58.03
2022-11-18T10:28:32.272Z,57.01
2022-11-18T10:31:10.794Z,55.35
2022-11-18T10:33:40.202Z,58.64
2022-11-18T10:36:17.905Z,55.22
2022-11-18T10:38:50.216Z,55.63
2022-11-18T10:41:22.728Z,55.81
2022-11-18T10:43:54.526Z,56.04
2022-11-18T10:46:32.083Z,54.96
2022-11-18T10:49:10.184Z,56.05
2022-11-18T10:51:42.154Z,54.58
2022-11-18T10:54:20.360Z,56.06
2022-11-18T10:56:53.433Z,56.14
2022-11-18T10:59:33.495Z,55.94
2022-11-18T11:02:33.020Z,53.74
2022-11-18T11:05:20.019Z,53.63
2022-11-18T11:08:29.012Z,54.01
2022-11-18T11:10:59.855Z,52.45
2022-11-18T11:13:32.743Z,54.31
2022-11-18T11:16:06.757Z,56.95
2022-11-18T11:18:42.496Z,57.42
2022-11-18T11:21:14.862Z,57.85
2022-11-18T11:23:45.013Z,57.77
2022-11-18T11:29:20.912Z,68.36
2022-11-18T11:32:21.770Z,72.11
2022-11-18T11:35:01.215Z,76.53
2022-11-18T11:37:58.311Z,81.33
2022-11-18T11:40:30.390Z,85.20
2022-11-18T11:43:17.769Z,92.18
2022-11-18T11:46:04.864Z,94.05
2022-11-18T11:48:45.543Z,92.92
2022-11-18T11:51:57.692Z,84.71
2022-11-18T11:54:44.472Z,79.46
2022-11-18T11:57:27.625Z,73.69
2022-11-18T12:00:06.562Z,70.06
2022-11-18T12:02:49.942Z,68.93
2022-11-18T12:05:29.601Z,73.16
2022-11-18T12:08:01.371Z,68.32
2022-11-18T12:10:44.802Z,72.49
2022-11-18T12:13:37.848Z,98.43
2022-11-18T12:16:32.972Z,100.00
2022-11-18T12:19:12.199Z,100.00
2022-11-18T12:21:46.843Z,100.00
2022-11-18T12:24:18.783Z,100.00
2022-11-18T12:26:49.451Z,100.00
2022-11-18T12:29:21.504Z,100.00
2022-11-18T12:31:56.934Z,100.00
2022-11-18T12:34:45.379Z,89.80
2022-11-18T12:37:26.169Z,95.33
2022-11-18T12:43:05.334Z,91.19
2022-11-18T12:45:44.033Z,93.31
2022-11-18T12:48:27.730Z,87.10
2022-11-18T12:51:01.990Z,83.44
2022-11-18T12:53:44.264Z,79.43
2022-11-18T12:56:19.127Z,91.91
2022-11-18T12:58:59.594Z,97.74
2022-11-18T13:01:31.938Z,100.00
2022-11-18T13:04:10.978Z,100.00
2022-11-18T13:06:40.197Z,100.00
2022-11-18T13:09:36.729Z,100.00
2022-11-18T13:12:15.348Z,100.00
2022-11-18T13:15:04.057Z,100.00
2022-11-18T13:17:55.379Z,100.00
2022-11-18T13:20:34.263Z,100.00
2022-11-18T13:23:36.298Z,100.00
2022-11-18T13:26:18.707Z,100.00
2022-11-18T13:29:20.887Z,92.79
2022-11-18T13:32:23.180Z,88.96
2022-11-18T13:35:13.314Z,96.13
2022-11-18T13:38:02.408Z,100.00
2022-11-18T13:40:32.472Z,100.00
2022-11-18T13:43:01.302Z,100.00
2022-11-18T13:45:33.378Z,100.00
2022-11-18T13:48:10.358Z,100.00
2022-11-18T13:50:44.925Z,100.00
2022-11-18T13:53:31.767Z,100.00
2022-11-18T13:56:04.422Z,100.00
2022-11-18T13:58:55.600Z,100.00
2022-11-18T14:01:32.500Z,100.00
2022-11-18T14:04:48.916Z,100.00
2022-11-18T14:07:30.665Z,100.00
2022-11-18T14:10:09.673Z,100.00
2022-11-18T14:12:38.513Z,100.00
2022-11-18T14:15:22.005Z,100.00
2022-11-18T14:17:56.926Z,100.00
2022-11-18T14:20:27.711Z,100.00
2022-11-18T14:23:02.103Z,100.00
2022-11-18T14:25:37.287Z,100.00
2022-11-18T14:28:29.419Z,100.00
2022-11-18T14:31:05.014Z,100.00
2022-11-18T14:33:35.854Z,100.00
2022-11-18T14:36:20.322Z,100.00
2022-11-18T14:39:19.369Z,100.00
2022-11-18T14:41:49.481Z,100.00
2022-11-18T14:44:23.178Z,100.00
2022-11-18T14:47:00.371Z,100.00
2022-11-18T14:49:32.338Z,100.00
2022-11-18T14:52:05.357Z,100.00
2022-11-18T14:54:34.327Z,100.00
2022-11-18T14:57:05.946Z,100.00
2022-11-18T14:59:34.831Z,100.00
2022-11-18T15:02:03.656Z,100.00
2022-11-18T15:04:32.696Z,100.00
2022-11-18T15:07:01.514Z,100.00
2022-11-18T15:09:30.388Z,100.00
2022-11-18T15:11:59.116Z,100.00
2022-11-18T15:14:27.950Z,100.00
2022-11-18T15:16:56.657Z,100.00
2022-11-18T15:19:25.668Z,100.00
2022-11-18T15:21:54.559Z,100.00
2022-11-18T15:24:23.705Z,100.00
2022-11-18T15:26:52.399Z,100.00
2022-11-18T15:29:25.925Z,100.00
2022-11-18T15:31:54.772Z,100.00
2022-11-18T15:34:23.835Z,100.00
2022-11-18T15:36:53.076Z,100.00
2022-11-18T15:39:21.817Z,100.00
2022-11-18T15:41:50.701Z,100.00
2022-11-18T15:44:19.700Z,100.00
2022-11-18T15:46:48.758Z,100.00
2022-11-18T15:49:18.906Z,100.00
2022-11-18T15:51:50.465Z,100.00
2022-11-18T15:54:20.753Z,100.00
2022-11-18T15:56:49.953Z,100.00
2022-11-18T15:59:18.747Z,100.00
2022-11-18T16:01:50.109Z,100.00
2022-11-18T16:04:20.117Z,100.00
2022-11-18T16:06:49.354Z,100.00
2022-11-18T16:09:19.093Z,100.00
2022-11-18T16:12:06.444Z,100.00
2022-11-18T16:14:37.878Z,100.00
2022-11-18T16:17:06.688Z,100.00
2022-11-18T16:19:35.637Z,100.00
2022-11-18T16:22:04.726Z,100.00
2022-11-18T16:24:33.620Z,100.00
2022-11-18T16:27:04.584Z,100.00
2022-11-18T16:29:33.847Z,100.00
2022-11-18T16:32:02.926Z,100.00
2022-11-18T16:34:31.763Z,100.00
2022-11-18T16:37:02.888Z,100.00
2022-11-18T16:39:31.902Z,100.00
2022-11-18T16:42:08.372Z,100.00
2022-11-18T16:44:38.904Z,100.00
2022-11-18T16:47:14.232Z,100.00
2022-11-18T16:49:44.752Z,100.00
2022-11-18T16:52:13.780Z,100.00
2022-11-18T16:54:45.634Z,100.00
2022-11-18T16:57:15.694Z,100.00
2022-11-18T16:59:44.441Z,100.00
2022-11-18T17:02:14.570Z,100.00
2022-11-18T17:04:43.939Z,100.00
2022-11-18T17:07:13.606Z,100.00
2022-11-18T17:09:42.462Z,100.00
2022-11-18T17:12:11.335Z,100.00
2022-11-18T17:14:40.917Z,100.00
2022-11-18T17:17:09.895Z,100.00
2022-11-18T17:19:38.997Z,100.00
2022-11-18T17:22:07.915Z,100.00
2022-11-18T17:24:37.425Z,100.00
2022-11-18T17:27:06.500Z,100.00
2022-11-18T17:29:35.494Z,100.00
2022-11-18T17:32:04.316Z,100.00
2022-11-18T17:34:33.207Z,100.00
2022-11-18T17:37:06.774Z,100.00
2022-11-18T17:39:36.373Z,100.00
2022-11-18T17:42:19.940Z,100.00
2022-11-18T17:44:48.853Z,100.00
2022-11-18T17:47:17.761Z,100.00
2022-11-18T17:49:46.757Z,100.00
2022-11-18T17:52:15.776Z,100.00
2022-11-18T17:54:44.645Z,100.00
2022-11-18T17:57:13.766Z,100.00
2022-11-18T17:59:42.532Z,100.00
2022-11-18T18:02:13.320Z,100.00
2022-11-18T18:04:42.392Z,100.00
2022-11-18T18:07:11.173Z,100.00
2022-11-18T18:09:40.062Z,100.00
2022-11-18T18:12:27.095Z,100.00
2022-11-18T18:14:55.900Z,90.50
2022-11-18T18:17:24.845Z,87.46
2022-11-18T18:19:54.119Z,85.05
2022-11-18T18:22:22.871Z,83.44
2022-11-18T18:24:51.694Z,82.55
2022-11-18T18:27:21.023Z,78.20
2022-11-18T18:29:49.864Z,75.94
2022-11-18T18:32:18.560Z,62.18
2022-11-18T18:34:47.506Z,63.21
2022-11-18T18:37:16.260Z,58.07
2022-11-18T18:39:45.342Z,45.78
2022-11-18T18:42:14.449Z,53.73
2022-11-18T18:45:02.284Z,52.59
2022-11-18T18:47:31.515Z,51.72
2022-11-18T18:50:00.513Z,48.31
2022-11-18T18:52:31.545Z,50.85
2022-11-18T18:55:00.847Z,45.59
2022-11-18T18:57:30.958Z,44.21
2022-11-18T18:59:59.743Z,45.65
2022-11-18T19:02:28.755Z,39.36
2022-11-18T19:04:57.610Z,42.43
2022-11-18T19:07:28.610Z,37.96
2022-11-18T19:09:57.474Z,38.38
2022-11-18T19:12:44.643Z,37.28
2022-11-18T19:15:15.963Z,35.95
2022-11-18T19:17:46.900Z,37.31
2022-11-18T19:20:34.826Z,35.27
2022-11-18T19:23:10.552Z,35.83
2022-11-18T19:25:39.959Z,35.62
2022-11-18T19:28:12.297Z,35.52
2022-11-18T19:30:41.364Z,36.09
2022-11-18T19:33:10.269Z,35.48
2022-11-18T19:35:39.308Z,35.36
2022-11-18T19:38:08.330Z,35.63
2022-11-18T19:40:37.139Z,37.18
2022-11-18T19:43:06.012Z,37.66
2022-11-18T19:45:35.727Z,39.03
2022-11-18T19:48:06.900Z,39.24
2022-11-18T19:50:35.871Z,41.91
2022-11-18T19:53:24.482Z,40.49
2022-11-18T19:55:58.074Z,42.71
2022-11-18T19:58:29.381Z,41.62
2022-11-18T20:00:58.471Z,40.41
2022-11-18T20:03:29.220Z,39.41
2022-11-18T20:06:02.767Z,38.75
2022-11-18T20:08:34.339Z,38.95
2022-11-18T20:11:09.275Z,40.35
2022-11-18T20:13:40.057Z,39.54
2022-11-18T20:16:35.150Z,37.59
2022-11-18T20:19:10.946Z,35.81
2022-11-18T20:21:44.090Z,33.84
2022-11-18T20:24:18.484Z,33.45
2022-11-18T20:26:47.854Z,29.38
2022-11-18T20:29:18.011Z,37.86
2022-11-18T20:31:47.763Z,36.02
2022-11-18T20:34:16.616Z,33.26
2022-11-18T20:36:47.501Z,34.19
2022-11-18T20:39:17.542Z,36.43
2022-11-18T20:42:05.487Z,33.14
2022-11-18T20:44:34.511Z,28.74
2022-11-18T20:47:03.264Z,30.72
2022-11-18T20:49:32.202Z,29.85
2022-11-18T20:52:00.948Z,26.99
2022-11-18T20:54:29.755Z,26.53
2022-11-18T20:56:59.161Z,27.56
2022-11-18T20:59:28.041Z,28.34
2022-11-18T21:01:56.729Z,25.64
2022-11-18T21:04:25.540Z,27.01
2022-11-18T21:06:59.602Z,26.04
2022-11-18T21:09:32.618Z,25.74
2022-11-18T21:12:02.086Z,26.35
2022-11-18T21:14:30.899Z,25.72
2022-11-18T21:17:03.130Z,25.54
2022-11-18T21:19:34.542Z,25.63
2022-11-18T21:22:03.986Z,25.95
2022-11-18T21:24:34.930Z,26.44
2022-11-18T21:27:05.585Z,26.57
2022-11-18T21:29:35.137Z,25.46
2022-11-18T21:32:04.921Z,24.78
2022-11-18T21:34:33.948Z,25.61
2022-11-18T21:37:03.313Z,24.74
2022-11-18T21:39:33.094Z,24.48
2022-11-18T21:42:02.835Z,24.48
2022-11-18T21:44:32.504Z,25.89
2022-11-18T21:47:01.570Z,25.83
2022-11-18T21:49:31.078Z,26.16
2022-11-18T21:51:59.914Z,24.88
2022-11-18T21:54:29.299Z,25.99
2022-11-18T21:56:58.208Z,27.47
2022-11-18T21:59:27.364Z,25.33
2022-11-18T22:01:57.733Z,25.03
2022-11-18T22:04:45.375Z,25.96
2022-11-18T22:07:14.276Z,25.52
2022-11-18T22:09:43.189Z,27.31
2022-11-18T22:12:12.189Z,28.51
2022-11-18T22:14:43.607Z,30.23
2022-11-18T22:17:12.622Z,29.69
2022-11-18T22:19:41.454Z,28.62
2022-11-18T22:22:10.760Z,30.85
2022-11-18T22:24:39.641Z,29.41
2022-11-18T22:27:11.381Z,30.05
2022-11-18T22:29:40.716Z,29.02
2022-11-18T22:32:09.704Z,28.80
2022-11-18T22:34:38.597Z,28.27
2022-11-18T22:37:07.543Z,28.72
2022-11-18T22:39:36.444Z,29.05
2022-11-18T22:42:23.549Z,29.46
2022-11-18T22:44:52.665Z,28.73
2022-11-18T22:47:21.611Z,29.51
2022-11-18T22:49:55.007Z,30.28
2022-11-18T22:52:25.177Z,28.65
2022-11-18T22:54:54.110Z,29.28
2022-11-18T22:57:23.246Z,29.31
2022-11-18T22:59:53.128Z,29.08
2022-11-18T23:02:22.070Z,29.53
2022-11-18T23:04:50.985Z,29.82
2022-11-18T23:07:19.966Z,29.38
2022-11-18T23:09:48.844Z,26.14
2022-11-18T23:12:35.958Z,27.74
2022-11-18T23:15:04.750Z,30.12
2022-11-18T23:17:33.579Z,29.55
2022-11-18T23:20:02.850Z,29.68
2022-11-18T23:22:32.361Z,28.18
2022-11-18T23:25:01.465Z,31.61
2022-11-18T23:27:30.358Z,31.84
2022-11-18T23:30:01.073Z,31.43
2022-11-18T23:32:30.338Z,32.55
2022-11-18T23:34:59.430Z,31.25
2022-11-18T23:37:28.423Z,35.13
2022-11-18T23:39:57.316Z,34.35
2022-11-18T23:42:26.440Z,33.45
2022-11-18T23:45:03.760Z,33.63
2022-11-18T23:47:34.181Z,33.75
2022-11-18T23:50:03.182Z,35.28
2022-11-18T23:52:32.174Z,35.03
2022-11-18T23:55:02.204Z,34.32
2022-11-18T23:57:30.945Z,33.88
2022-11-18T23:59:59.749Z,34.59
